sensor_id;sensor_type;location;lat;lon;timestamp;temperature;humidity
60868;DHT22;46702;48.370;10.794;2023-07-29T00:00:41;16.90;99.90
60868;DHT22;46702;48.370;10.794;2023-07-29T00:03:08;16.80;99.90
60868;DHT22;46702;48.370;10.794;2023-07-29T00:05:33;16.70;99.90
60868;DHT22;46702;48.370;10.794;2023-07-29T00:07:59;16.80;99.90
60868;DHT22;46702;48.370;10.794;2023-07-29T00:10:25;16.80;99.90
60868;DHT22;46702;48.370;10.794;2023-07-29T00:12:51;16.80;99.90
60868;DHT22;46702;48.370;10.794;2023-07-29T00:15:16;16.80;99.90
60868;DHT22;46702;48.370;10.794;2023-07-29T00:17:42;16.90;99.90
60868;DHT22;46702;48.370;10.794;2023-07-29T00:20:08;16.90;99.90
60868;DHT22;46702;48.370;10.794;2023-07-29T00:22:33;16.80;99.90
60868;DHT22;46702;48.370;10.794;2023-07-29T00:24:59;16.80;99.90
60868;DHT22;46702;48.370;10.794;2023-07-29T00:27:25;16.80;99.90
60868;DHT22;46702;48.370;10.794;2023-07-29T00:29:51;16.70;99.90
60868;DHT22;46702;48.370;10.794;2023-07-29T00:32:17;16.70;99.90
60868;DHT22;46702;48.370;10.794;2023-07-29T00:34:42;16.70;99.90
60868;DHT22;46702;48.370;10.794;2023-07-29T00:37:08;16.60;99.90
60868;DHT22;46702;48.370;10.794;2023-07-29T00:39:34;16.60;99.90
60868;DHT22;46702;48.370;10.794;2023-07-29T00:42:00;16.50;99.90
60868;DHT22;46702;48.370;10.794;2023-07-29T00:44:25;16.40;99.90
60868;DHT22;46702;48.370;10.794;2023-07-29T00:46:54;16.40;99.90
60868;DHT22;46702;48.370;10.794;2023-07-29T00:49:21;16.40;99.90
60868;DHT22;46702;48.370;10.794;2023-07-29T00:51:47;16.40;99.90
60868;DHT22;46702;48.370;10.794;2023-07-29T00:54:13;16.40;99.90
60868;DHT22;46702;48.370;10.794;2023-07-29T00:56:39;16.30;99.90
60868;DHT22;46702;48.370;10.794;2023-07-29T00:59:05;16.20;99.90
60868;DHT22;46702;48.370;10.794;2023-07-29T01:01:31;16.20;99.90
60868;DHT22;46702;48.370;10.794;2023-07-29T01:03:57;16.20;99.90
60868;DHT22;46702;48.370;10.794;2023-07-29T01:09:55;16.30;99.90
60868;DHT22;46702;48.370;10.794;2023-07-29T01:13:06;16.30;99.90
60868;DHT22;46702;48.370;10.794;2023-07-29T01:15:49;16.20;99.90
60868;DHT22;46702;48.370;10.794;2023-07-29T01:18:26;16.20;99.90
60868;DHT22;46702;48.370;10.794;2023-07-29T01:20:54;16.10;99.90
60868;DHT22;46702;48.370;10.794;2023-07-29T01:23:30;16.10;99.90
60868;DHT22;46702;48.370;10.794;2023-07-29T01:25:56;16.00;99.90
60868;DHT22;46702;48.370;10.794;2023-07-29T01:28:22;15.90;99.90
60868;DHT22;46702;48.370;10.794;2023-07-29T01:30:49;15.90;99.90
60868;DHT22;46702;48.370;10.794;2023-07-29T01:33:22;16.00;99.90
60868;DHT22;46702;48.370;10.794;2023-07-29T01:35:51;16.00;99.90
60868;DHT22;46702;48.370;10.794;2023-07-29T01:38:27;15.90;99.90
60868;DHT22;46702;48.370;10.794;2023-07-29T01:40:57;15.90;99.90
60868;DHT22;46702;48.370;10.794;2023-07-29T01:43:23;15.90;99.90
60868;DHT22;46702;48.370;10.794;2023-07-29T01:45:51;15.80;99.90
60868;DHT22;46702;48.370;10.794;2023-07-29T01:48:17;15.80;99.90
60868;DHT22;46702;48.370;10.794;2023-07-29T01:50:43;15.90;99.90
60868;DHT22;46702;48.370;10.794;2023-07-29T01:53:08;15.80;99.90
60868;DHT22;46702;48.370;10.794;2023-07-29T01:55:34;15.80;99.90
60868;DHT22;46702;48.370;10.794;2023-07-29T01:57:59;15.80;99.90
60868;DHT22;46702;48.370;10.794;2023-07-29T02:00:25;15.70;99.90
60868;DHT22;46702;48.370;10.794;2023-07-29T02:02:50;15.80;99.90
60868;DHT22;46702;48.370;10.794;2023-07-29T02:05:16;15.70;99.90
60868;DHT22;46702;48.370;10.794;2023-07-29T02:07:42;15.70;99.90
60868;DHT22;46702;48.370;10.794;2023-07-29T02:10:08;15.60;99.90
60868;DHT22;46702;48.370;10.794;2023-07-29T02:12:34;15.60;99.90
60868;DHT22;46702;48.370;10.794;2023-07-29T02:14:59;15.40;99.90
60868;DHT22;46702;48.370;10.794;2023-07-29T02:17:25;15.40;99.90
60868;DHT22;46702;48.370;10.794;2023-07-29T02:19:51;15.40;99.90
60868;DHT22;46702;48.370;10.794;2023-07-29T02:22:18;15.40;99.90
60868;DHT22;46702;48.370;10.794;2023-07-29T02:24:44;15.30;99.90
60868;DHT22;46702;48.370;10.794;2023-07-29T02:27:10;15.20;99.90
60868;DHT22;46702;48.370;10.794;2023-07-29T02:29:36;15.20;99.90
60868;DHT22;46702;48.370;10.794;2023-07-29T02:32:02;15.20;99.90
60868;DHT22;46702;48.370;10.794;2023-07-29T02:34:28;15.30;99.90
60868;DHT22;46702;48.370;10.794;2023-07-29T02:36:53;15.40;99.90
60868;DHT22;46702;48.370;10.794;2023-07-29T02:39:19;15.40;99.90
60868;DHT22;46702;48.370;10.794;2023-07-29T02:41:44;15.40;99.90
60868;DHT22;46702;48.370;10.794;2023-07-29T02:44:10;15.40;99.90
60868;DHT22;46702;48.370;10.794;2023-07-29T02:46:35;15.40;99.90
60868;DHT22;46702;48.370;10.794;2023-07-29T02:49:04;15.50;99.90
60868;DHT22;46702;48.370;10.794;2023-07-29T02:51:30;15.50;99.90
60868;DHT22;46702;48.370;10.794;2023-07-29T02:53:56;15.50;99.90
60868;DHT22;46702;48.370;10.794;2023-07-29T02:56:22;15.50;99.90
60868;DHT22;46702;48.370;10.794;2023-07-29T02:58:47;15.50;99.90
60868;DHT22;46702;48.370;10.794;2023-07-29T03:01:13;15.50;99.90
60868;DHT22;46702;48.370;10.794;2023-07-29T03:03:39;15.50;99.90
60868;DHT22;46702;48.370;10.794;2023-07-29T03:06:10;15.50;99.90
60868;DHT22;46702;48.370;10.794;2023-07-29T03:08:36;15.50;99.90
60868;DHT22;46702;48.370;10.794;2023-07-29T03:11:10;15.50;99.90
60868;DHT22;46702;48.370;10.794;2023-07-29T03:13:37;15.40;99.90
60868;DHT22;46702;48.370;10.794;2023-07-29T03:16:07;15.30;99.90
60868;DHT22;46702;48.370;10.794;2023-07-29T03:18:33;15.30;99.90
60868;DHT22;46702;48.370;10.794;2023-07-29T03:20:59;15.40;99.90
60868;DHT22;46702;48.370;10.794;2023-07-29T03:23:24;15.40;99.90
60868;DHT22;46702;48.370;10.794;2023-07-29T03:25:50;15.30;99.90
60868;DHT22;46702;48.370;10.794;2023-07-29T03:28:23;15.30;99.90
60868;DHT22;46702;48.370;10.794;2023-07-29T03:30:48;15.30;99.90
60868;DHT22;46702;48.370;10.794;2023-07-29T03:33:14;15.30;99.90
60868;DHT22;46702;48.370;10.794;2023-07-29T03:35:39;15.30;99.90
60868;DHT22;46702;48.370;10.794;2023-07-29T03:38:05;15.30;99.90
60868;DHT22;46702;48.370;10.794;2023-07-29T03:40:31;15.30;99.90
60868;DHT22;46702;48.370;10.794;2023-07-29T03:42:56;15.30;99.90
60868;DHT22;46702;48.370;10.794;2023-07-29T03:45:22;15.20;99.90
60868;DHT22;46702;48.370;10.794;2023-07-29T03:47:47;15.20;99.90
60868;DHT22;46702;48.370;10.794;2023-07-29T03:50:13;15.10;99.90
60868;DHT22;46702;48.370;10.794;2023-07-29T03:52:38;15.10;99.90
60868;DHT22;46702;48.370;10.794;2023-07-29T03:55:04;15.10;99.90
60868;DHT22;46702;48.370;10.794;2023-07-29T03:57:30;15.10;99.90
60868;DHT22;46702;48.370;10.794;2023-07-29T03:59:56;15.10;99.90
60868;DHT22;46702;48.370;10.794;2023-07-29T04:02:21;14.90;99.90
60868;DHT22;46702;48.370;10.794;2023-07-29T04:04:47;14.90;99.90
60868;DHT22;46702;48.370;10.794;2023-07-29T04:07:13;15.00;99.90
60868;DHT22;46702;48.370;10.794;2023-07-29T04:09:39;15.00;99.90
60868;DHT22;46702;48.370;10.794;2023-07-29T04:12:05;15.00;99.90
60868;DHT22;46702;48.370;10.794;2023-07-29T04:14:31;15.00;99.90
60868;DHT22;46702;48.370;10.794;2023-07-29T04:16:57;15.00;99.90
60868;DHT22;46702;48.370;10.794;2023-07-29T04:19:22;15.10;99.90
60868;DHT22;46702;48.370;10.794;2023-07-29T04:21:48;14.90;99.90
60868;DHT22;46702;48.370;10.794;2023-07-29T04:24:16;15.00;99.90
60868;DHT22;46702;48.370;10.794;2023-07-29T04:26:41;15.00;99.90
60868;DHT22;46702;48.370;10.794;2023-07-29T04:29:07;15.00;99.90
60868;DHT22;46702;48.370;10.794;2023-07-29T04:31:32;15.10;99.90
60868;DHT22;46702;48.370;10.794;2023-07-29T04:33:58;15.20;99.90
60868;DHT22;46702;48.370;10.794;2023-07-29T04:36:24;15.20;99.90
60868;DHT22;46702;48.370;10.794;2023-07-29T04:38:49;15.30;99.90
60868;DHT22;46702;48.370;10.794;2023-07-29T04:41:15;15.40;99.90
60868;DHT22;46702;48.370;10.794;2023-07-29T04:43:40;15.40;99.90
60868;DHT22;46702;48.370;10.794;2023-07-29T04:46:07;15.50;99.90
60868;DHT22;46702;48.370;10.794;2023-07-29T04:48:34;15.50;99.90
60868;DHT22;46702;48.370;10.794;2023-07-29T04:50:59;15.50;99.90
60868;DHT22;46702;48.370;10.794;2023-07-29T04:53:25;15.60;99.90
60868;DHT22;46702;48.370;10.794;2023-07-29T04:55:51;15.80;99.90
60868;DHT22;46702;48.370;10.794;2023-07-29T04:58:16;15.90;99.90
60868;DHT22;46702;48.370;10.794;2023-07-29T05:00:42;16.00;99.90
60868;DHT22;46702;48.370;10.794;2023-07-29T05:03:07;16.00;99.90
60868;DHT22;46702;48.370;10.794;2023-07-29T05:05:33;16.10;99.90
60868;DHT22;46702;48.370;10.794;2023-07-29T05:07:58;16.10;99.90
60868;DHT22;46702;48.370;10.794;2023-07-29T05:10:24;16.20;99.90
60868;DHT22;46702;48.370;10.794;2023-07-29T05:12:50;16.40;99.90
60868;DHT22;46702;48.370;10.794;2023-07-29T05:15:15;16.50;99.90
60868;DHT22;46702;48.370;10.794;2023-07-29T05:17:41;16.60;99.90
60868;DHT22;46702;48.370;10.794;2023-07-29T05:20:07;16.60;99.90
60868;DHT22;46702;48.370;10.794;2023-07-29T05:22:33;16.60;99.90
60868;DHT22;46702;48.370;10.794;2023-07-29T05:24:58;16.60;99.90
60868;DHT22;46702;48.370;10.794;2023-07-29T05:27:24;16.70;99.90
60868;DHT22;46702;48.370;10.794;2023-07-29T05:29:50;16.70;99.90
60868;DHT22;46702;48.370;10.794;2023-07-29T05:32:15;16.70;99.90
60868;DHT22;46702;48.370;10.794;2023-07-29T05:34:41;16.80;99.90
60868;DHT22;46702;48.370;10.794;2023-07-29T05:37:06;16.80;99.90
60868;DHT22;46702;48.370;10.794;2023-07-29T05:39:32;16.90;99.90
60868;DHT22;46702;48.370;10.794;2023-07-29T05:41:58;16.90;99.90
60868;DHT22;46702;48.370;10.794;2023-07-29T05:44:24;17.00;99.90
60868;DHT22;46702;48.370;10.794;2023-07-29T05:46:50;17.10;99.90
60868;DHT22;46702;48.370;10.794;2023-07-29T05:49:15;17.10;99.90
60868;DHT22;46702;48.370;10.794;2023-07-29T05:51:41;17.20;99.90
60868;DHT22;46702;48.370;10.794;2023-07-29T05:54:06;17.20;99.90
60868;DHT22;46702;48.370;10.794;2023-07-29T05:56:32;17.20;99.90
60868;DHT22;46702;48.370;10.794;2023-07-29T05:58:58;17.30;99.90
60868;DHT22;46702;48.370;10.794;2023-07-29T06:01:23;17.40;99.90
60868;DHT22;46702;48.370;10.794;2023-07-29T06:03:49;17.40;99.90
60868;DHT22;46702;48.370;10.794;2023-07-29T06:06:15;17.40;99.90
60868;DHT22;46702;48.370;10.794;2023-07-29T06:08:41;17.40;99.90
60868;DHT22;46702;48.370;10.794;2023-07-29T06:11:06;17.50;99.90
60868;DHT22;46702;48.370;10.794;2023-07-29T06:13:32;17.50;99.90
60868;DHT22;46702;48.370;10.794;2023-07-29T06:15:58;17.40;99.90
60868;DHT22;46702;48.370;10.794;2023-07-29T06:18:24;17.40;99.90
60868;DHT22;46702;48.370;10.794;2023-07-29T06:20:50;17.40;99.90
60868;DHT22;46702;48.370;10.794;2023-07-29T06:23:16;17.40;99.90
60868;DHT22;46702;48.370;10.794;2023-07-29T06:25:42;17.40;99.90
60868;DHT22;46702;48.370;10.794;2023-07-29T06:28:09;17.40;99.90
60868;DHT22;46702;48.370;10.794;2023-07-29T06:30:34;17.40;99.90
60868;DHT22;46702;48.370;10.794;2023-07-29T06:33:00;17.40;99.90
60868;DHT22;46702;48.370;10.794;2023-07-29T06:35:25;17.30;99.90
60868;DHT22;46702;48.370;10.794;2023-07-29T06:37:51;17.30;99.90
60868;DHT22;46702;48.370;10.794;2023-07-29T06:40:17;17.30;99.90
60868;DHT22;46702;48.370;10.794;2023-07-29T06:42:42;17.30;99.90
60868;DHT22;46702;48.370;10.794;2023-07-29T06:45:08;17.30;99.90
60868;DHT22;46702;48.370;10.794;2023-07-29T06:47:34;17.40;99.90
60868;DHT22;46702;48.370;10.794;2023-07-29T06:50:00;17.40;99.90
60868;DHT22;46702;48.370;10.794;2023-07-29T06:52:25;17.50;99.90
60868;DHT22;46702;48.370;10.794;2023-07-29T06:54:51;17.50;99.90
60868;DHT22;46702;48.370;10.794;2023-07-29T06:57:17;17.60;99.90
60868;DHT22;46702;48.370;10.794;2023-07-29T06:59:42;17.60;99.90
60868;DHT22;46702;48.370;10.794;2023-07-29T07:02:08;17.70;99.90
60868;DHT22;46702;48.370;10.794;2023-07-29T07:04:33;17.80;99.90
60868;DHT22;46702;48.370;10.794;2023-07-29T07:06:59;17.90;99.90
60868;DHT22;46702;48.370;10.794;2023-07-29T07:09:25;18.00;99.90
60868;DHT22;46702;48.370;10.794;2023-07-29T07:11:50;18.20;99.90
60868;DHT22;46702;48.370;10.794;2023-07-29T07:14:16;18.50;99.90
60868;DHT22;46702;48.370;10.794;2023-07-29T07:16:41;18.70;99.90
60868;DHT22;46702;48.370;10.794;2023-07-29T07:19:07;18.80;99.90
60868;DHT22;46702;48.370;10.794;2023-07-29T07:21:33;19.10;99.90
60868;DHT22;46702;48.370;10.794;2023-07-29T07:23:58;19.20;99.90
60868;DHT22;46702;48.370;10.794;2023-07-29T07:26:24;19.30;99.90
60868;DHT22;46702;48.370;10.794;2023-07-29T07:28:49;19.40;99.90
60868;DHT22;46702;48.370;10.794;2023-07-29T07:31:16;19.40;99.90
60868;DHT22;46702;48.370;10.794;2023-07-29T07:33:42;19.40;99.90
60868;DHT22;46702;48.370;10.794;2023-07-29T07:36:08;19.50;99.90
60868;DHT22;46702;48.370;10.794;2023-07-29T07:38:33;19.50;99.90
60868;DHT22;46702;48.370;10.794;2023-07-29T07:40:59;19.50;99.90
60868;DHT22;46702;48.370;10.794;2023-07-29T07:43:25;19.60;99.90
60868;DHT22;46702;48.370;10.794;2023-07-29T07:45:56;19.60;99.90
60868;DHT22;46702;48.370;10.794;2023-07-29T07:48:22;19.60;99.90
60868;DHT22;46702;48.370;10.794;2023-07-29T07:50:48;19.60;99.90
60868;DHT22;46702;48.370;10.794;2023-07-29T07:53:14;19.60;99.90
60868;DHT22;46702;48.370;10.794;2023-07-29T07:55:39;19.60;99.90
60868;DHT22;46702;48.370;10.794;2023-07-29T07:58:05;19.70;99.90
60868;DHT22;46702;48.370;10.794;2023-07-29T08:00:30;19.70;99.90
60868;DHT22;46702;48.370;10.794;2023-07-29T08:02:56;19.70;99.90
60868;DHT22;46702;48.370;10.794;2023-07-29T08:05:21;19.80;99.90
60868;DHT22;46702;48.370;10.794;2023-07-29T08:07:47;19.80;99.90
60868;DHT22;46702;48.370;10.794;2023-07-29T08:10:13;19.90;99.90
60868;DHT22;46702;48.370;10.794;2023-07-29T08:12:38;20.00;99.90
60868;DHT22;46702;48.370;10.794;2023-07-29T08:15:05;20.00;99.90
60868;DHT22;46702;48.370;10.794;2023-07-29T08:17:31;20.10;99.90
60868;DHT22;46702;48.370;10.794;2023-07-29T08:19:56;20.10;99.90
60868;DHT22;46702;48.370;10.794;2023-07-29T08:22:22;20.20;99.90
60868;DHT22;46702;48.370;10.794;2023-07-29T08:24:47;20.20;99.90
60868;DHT22;46702;48.370;10.794;2023-07-29T08:27:13;20.20;99.90
60868;DHT22;46702;48.370;10.794;2023-07-29T08:29:39;20.30;99.90
60868;DHT22;46702;48.370;10.794;2023-07-29T08:32:04;20.60;99.90
60868;DHT22;46702;48.370;10.794;2023-07-29T08:34:30;20.90;99.90
60868;DHT22;46702;48.370;10.794;2023-07-29T08:36:55;21.00;99.90
60868;DHT22;46702;48.370;10.794;2023-07-29T08:39:21;21.00;99.90
60868;DHT22;46702;48.370;10.794;2023-07-29T08:42:07;21.00;99.90
60868;DHT22;46702;48.370;10.794;2023-07-29T08:44:41;21.40;99.90
60868;DHT22;46702;48.370;10.794;2023-07-29T08:47:07;21.70;99.90
60868;DHT22;46702;48.370;10.794;2023-07-29T08:49:34;21.90;99.90
60868;DHT22;46702;48.370;10.794;2023-07-29T08:52:01;22.10;99.90
60868;DHT22;46702;48.370;10.794;2023-07-29T08:54:26;22.40;99.90
60868;DHT22;46702;48.370;10.794;2023-07-29T08:56:52;22.50;99.90
60868;DHT22;46702;48.370;10.794;2023-07-29T08:59:19;22.60;99.90
60868;DHT22;46702;48.370;10.794;2023-07-29T09:01:47;22.60;99.90
60868;DHT22;46702;48.370;10.794;2023-07-29T09:04:12;22.50;99.90
60868;DHT22;46702;48.370;10.794;2023-07-29T09:06:39;22.50;99.90
60868;DHT22;46702;48.370;10.794;2023-07-29T09:09:07;22.60;99.90
60868;DHT22;46702;48.370;10.794;2023-07-29T09:11:33;22.70;99.90
60868;DHT22;46702;48.370;10.794;2023-07-29T09:13:59;22.70;99.90
60868;DHT22;46702;48.370;10.794;2023-07-29T09:16:25;22.50;99.90
60868;DHT22;46702;48.370;10.794;2023-07-29T09:18:51;22.70;99.90
60868;DHT22;46702;48.370;10.794;2023-07-29T09:21:22;23.10;99.90
60868;DHT22;46702;48.370;10.794;2023-07-29T09:23:49;23.40;99.90
60868;DHT22;46702;48.370;10.794;2023-07-29T09:26:22;23.50;99.90
60868;DHT22;46702;48.370;10.794;2023-07-29T09:28:52;23.40;99.90
60868;DHT22;46702;48.370;10.794;2023-07-29T09:31:22;23.10;99.90
60868;DHT22;46702;48.370;10.794;2023-07-29T09:33:49;23.00;99.90
60868;DHT22;46702;48.370;10.794;2023-07-29T09:36:14;22.70;99.90
60868;DHT22;46702;48.370;10.794;2023-07-29T09:38:40;22.30;99.90
60868;DHT22;46702;48.370;10.794;2023-07-29T09:41:06;22.10;99.90
60868;DHT22;46702;48.370;10.794;2023-07-29T09:43:33;21.90;99.90
60868;DHT22;46702;48.370;10.794;2023-07-29T09:46:03;21.70;99.90
60868;DHT22;46702;48.370;10.794;2023-07-29T09:48:33;21.40;99.90
60868;DHT22;46702;48.370;10.794;2023-07-29T09:50:58;21.20;99.90
60868;DHT22;46702;48.370;10.794;2023-07-29T09:53:24;21.10;99.90
60868;DHT22;46702;48.370;10.794;2023-07-29T09:55:50;20.60;99.90
60868;DHT22;46702;48.370;10.794;2023-07-29T09:58:26;20.40;99.90
60868;DHT22;46702;48.370;10.794;2023-07-29T10:00:52;20.10;99.90
60868;DHT22;46702;48.370;10.794;2023-07-29T10:03:21;20.00;99.90
60868;DHT22;46702;48.370;10.794;2023-07-29T10:05:47;19.80;99.90
60868;DHT22;46702;48.370;10.794;2023-07-29T10:08:14;19.50;99.90
60868;DHT22;46702;48.370;10.794;2023-07-29T10:10:42;19.20;99.90
60868;DHT22;46702;48.370;10.794;2023-07-29T10:13:07;19.00;99.90
60868;DHT22;46702;48.370;10.794;2023-07-29T10:15:33;19.20;99.90
60868;DHT22;46702;48.370;10.794;2023-07-29T10:17:59;19.10;99.90
60868;DHT22;46702;48.370;10.794;2023-07-29T10:20:26;19.20;99.90
60868;DHT22;46702;48.370;10.794;2023-07-29T10:22:54;19.30;99.90
60868;DHT22;46702;48.370;10.794;2023-07-29T10:25:25;19.40;99.90
60868;DHT22;46702;48.370;10.794;2023-07-29T10:28:07;19.50;99.90
60868;DHT22;46702;48.370;10.794;2023-07-29T10:30:33;19.50;99.90
60868;DHT22;46702;48.370;10.794;2023-07-29T10:33:03;19.70;99.90
60868;DHT22;46702;48.370;10.794;2023-07-29T10:35:29;19.90;99.90
60868;DHT22;46702;48.370;10.794;2023-07-29T10:37:55;20.10;99.90
60868;DHT22;46702;48.370;10.794;2023-07-29T10:40:21;20.10;99.90
60868;DHT22;46702;48.370;10.794;2023-07-29T10:43:09;20.30;99.90
60868;DHT22;46702;48.370;10.794;2023-07-29T10:45:41;20.50;99.90
60868;DHT22;46702;48.370;10.794;2023-07-29T10:51:22;21.50;99.90
60868;DHT22;46702;48.370;10.794;2023-07-29T10:54:10;21.90;99.90
60868;DHT22;46702;48.370;10.794;2023-07-29T10:56:40;22.20;99.90
60868;DHT22;46702;48.370;10.794;2023-07-29T11:01:42;22.40;99.90
60868;DHT22;46702;48.370;10.794;2023-07-29T11:09:41;23.30;99.90
60868;DHT22;46702;48.370;10.794;2023-07-29T11:17:36;24.40;99.90
60868;DHT22;46702;48.370;10.794;2023-07-29T11:20:03;24.50;99.90
60868;DHT22;46702;48.370;10.794;2023-07-29T11:22:29;24.60;99.90
60868;DHT22;46702;48.370;10.794;2023-07-29T11:24:55;24.30;99.90
60868;DHT22;46702;48.370;10.794;2023-07-29T11:27:21;24.00;99.90
60868;DHT22;46702;48.370;10.794;2023-07-29T11:29:47;23.50;99.90
60868;DHT22;46702;48.370;10.794;2023-07-29T11:32:13;23.20;99.90
60868;DHT22;46702;48.370;10.794;2023-07-29T11:34:40;23.00;99.90
60868;DHT22;46702;48.370;10.794;2023-07-29T11:37:06;22.90;99.90
60868;DHT22;46702;48.370;10.794;2023-07-29T11:39:32;22.80;99.90
60868;DHT22;46702;48.370;10.794;2023-07-29T11:41:58;22.80;99.90
60868;DHT22;46702;48.370;10.794;2023-07-29T11:44:25;22.80;99.90
60868;DHT22;46702;48.370;10.794;2023-07-29T11:46:50;22.70;99.90
60868;DHT22;46702;48.370;10.794;2023-07-29T11:49:16;22.50;99.90
60868;DHT22;46702;48.370;10.794;2023-07-29T11:51:42;22.60;99.90
60868;DHT22;46702;48.370;10.794;2023-07-29T11:54:08;22.30;99.90
60868;DHT22;46702;48.370;10.794;2023-07-29T11:56:34;22.30;99.90
60868;DHT22;46702;48.370;10.794;2023-07-29T11:59:01;22.30;99.90
60868;DHT22;46702;48.370;10.794;2023-07-29T12:01:28;22.60;99.90
60868;DHT22;46702;48.370;10.794;2023-07-29T12:03:55;22.80;99.90
60868;DHT22;46702;48.370;10.794;2023-07-29T12:06:23;23.10;99.90
60868;DHT22;46702;48.370;10.794;2023-07-29T12:08:50;23.40;99.90
60868;DHT22;46702;48.370;10.794;2023-07-29T12:11:16;23.60;99.90
60868;DHT22;46702;48.370;10.794;2023-07-29T12:13:42;24.00;99.90
60868;DHT22;46702;48.370;10.794;2023-07-29T12:16:08;24.10;99.90
60868;DHT22;46702;48.370;10.794;2023-07-29T12:18:33;24.40;99.90
60868;DHT22;46702;48.370;10.794;2023-07-29T12:20:59;24.30;99.90
60868;DHT22;46702;48.370;10.794;2023-07-29T12:23:26;24.50;99.90
60868;DHT22;46702;48.370;10.794;2023-07-29T12:25:58;24.80;99.90
60868;DHT22;46702;48.370;10.794;2023-07-29T12:28:25;24.80;99.90
60868;DHT22;46702;48.370;10.794;2023-07-29T12:30:57;24.90;99.90
60868;DHT22;46702;48.370;10.794;2023-07-29T12:33:34;24.80;99.90
60868;DHT22;46702;48.370;10.794;2023-07-29T12:36:00;24.80;99.90
60868;DHT22;46702;48.370;10.794;2023-07-29T12:38:29;24.90;99.90
60868;DHT22;46702;48.370;10.794;2023-07-29T12:40:55;25.20;99.90
60868;DHT22;46702;48.370;10.794;2023-07-29T12:43:20;25.50;99.90
60868;DHT22;46702;48.370;10.794;2023-07-29T12:45:46;25.30;99.90
60868;DHT22;46702;48.370;10.794;2023-07-29T12:48:12;25.30;99.90
60868;DHT22;46702;48.370;10.794;2023-07-29T12:50:38;25.40;99.90
60868;DHT22;46702;48.370;10.794;2023-07-29T12:53:07;25.50;99.90
60868;DHT22;46702;48.370;10.794;2023-07-29T12:55:33;25.70;99.90
60868;DHT22;46702;48.370;10.794;2023-07-29T12:57:58;25.50;99.90
60868;DHT22;46702;48.370;10.794;2023-07-29T13:00:24;25.00;99.90
60868;DHT22;46702;48.370;10.794;2023-07-29T13:02:50;24.90;99.90
60868;DHT22;46702;48.370;10.794;2023-07-29T13:05:16;24.70;99.90
60868;DHT22;46702;48.370;10.794;2023-07-29T13:07:43;24.60;99.90
60868;DHT22;46702;48.370;10.794;2023-07-29T13:10:09;24.60;99.90
60868;DHT22;46702;48.370;10.794;2023-07-29T13:12:35;25.10;99.90
60868;DHT22;46702;48.370;10.794;2023-07-29T13:15:01;25.20;99.90
60868;DHT22;46702;48.370;10.794;2023-07-29T13:17:26;25.50;99.90
60868;DHT22;46702;48.370;10.794;2023-07-29T13:19:52;25.50;99.90
60868;DHT22;46702;48.370;10.794;2023-07-29T13:22:19;25.40;99.90
60868;DHT22;46702;48.370;10.794;2023-07-29T13:24:44;25.40;99.90
60868;DHT22;46702;48.370;10.794;2023-07-29T13:27:10;25.60;99.90
60868;DHT22;46702;48.370;10.794;2023-07-29T13:29:36;25.80;99.90
60868;DHT22;46702;48.370;10.794;2023-07-29T13:32:01;25.70;99.90
60868;DHT22;46702;48.370;10.794;2023-07-29T13:34:27;26.00;99.90
60868;DHT22;46702;48.370;10.794;2023-07-29T13:36:53;25.80;99.90
60868;DHT22;46702;48.370;10.794;2023-07-29T13:39:19;26.00;99.90
60868;DHT22;46702;48.370;10.794;2023-07-29T13:41:44;25.90;99.90
60868;DHT22;46702;48.370;10.794;2023-07-29T13:44:10;25.80;99.90
60868;DHT22;46702;48.370;10.794;2023-07-29T13:46:35;25.80;99.90
60868;DHT22;46702;48.370;10.794;2023-07-29T13:49:01;25.80;99.90
60868;DHT22;46702;48.370;10.794;2023-07-29T13:51:28;25.70;99.90
60868;DHT22;46702;48.370;10.794;2023-07-29T13:53:53;25.60;99.90
60868;DHT22;46702;48.370;10.794;2023-07-29T13:56:19;25.50;99.90
60868;DHT22;46702;48.370;10.794;2023-07-29T13:58:45;25.60;99.90
60868;DHT22;46702;48.370;10.794;2023-07-29T14:01:10;25.70;99.90
60868;DHT22;46702;48.370;10.794;2023-07-29T14:03:36;25.20;99.90
60868;DHT22;46702;48.370;10.794;2023-07-29T14:06:01;25.10;99.90
60868;DHT22;46702;48.370;10.794;2023-07-29T14:08:27;25.20;99.90
60868;DHT22;46702;48.370;10.794;2023-07-29T14:10:52;25.40;99.90
60868;DHT22;46702;48.370;10.794;2023-07-29T14:13:18;25.40;99.90
60868;DHT22;46702;48.370;10.794;2023-07-29T14:15:43;25.60;99.90
60868;DHT22;46702;48.370;10.794;2023-07-29T14:18:09;25.80;99.90
60868;DHT22;46702;48.370;10.794;2023-07-29T14:20:35;26.00;99.90
60868;DHT22;46702;48.370;10.794;2023-07-29T14:23:00;26.10;99.90
60868;DHT22;46702;48.370;10.794;2023-07-29T14:25:27;26.10;99.90
60868;DHT22;46702;48.370;10.794;2023-07-29T14:27:53;26.10;99.90
60868;DHT22;46702;48.370;10.794;2023-07-29T14:30:18;25.90;99.90
60868;DHT22;46702;48.370;10.794;2023-07-29T14:32:48;25.80;99.90
60868;DHT22;46702;48.370;10.794;2023-07-29T14:35:20;25.80;99.90
60868;DHT22;46702;48.370;10.794;2023-07-29T14:37:45;25.90;99.90
60868;DHT22;46702;48.370;10.794;2023-07-29T14:40:11;25.80;99.90
60868;DHT22;46702;48.370;10.794;2023-07-29T14:42:36;25.50;99.90
60868;DHT22;46702;48.370;10.794;2023-07-29T14:45:06;25.30;99.90
60868;DHT22;46702;48.370;10.794;2023-07-29T14:47:31;25.10;99.90
60868;DHT22;46702;48.370;10.794;2023-07-29T14:50:00;25.10;99.90
60868;DHT22;46702;48.370;10.794;2023-07-29T14:52:25;25.20;99.90
60868;DHT22;46702;48.370;10.794;2023-07-29T14:54:51;24.90;99.90
60868;DHT22;46702;48.370;10.794;2023-07-29T14:57:17;24.70;99.90
60868;DHT22;46702;48.370;10.794;2023-07-29T14:59:42;24.70;99.90
60868;DHT22;46702;48.370;10.794;2023-07-29T15:02:08;24.60;99.90
60868;DHT22;46702;48.370;10.794;2023-07-29T15:04:34;24.20;99.90
60868;DHT22;46702;48.370;10.794;2023-07-29T15:06:59;23.70;99.90
60868;DHT22;46702;48.370;10.794;2023-07-29T15:09:25;23.30;99.90
60868;DHT22;46702;48.370;10.794;2023-07-29T15:11:51;23.10;99.90
60868;DHT22;46702;48.370;10.794;2023-07-29T15:14:17;23.00;99.90
60868;DHT22;46702;48.370;10.794;2023-07-29T15:16:42;23.10;99.90
60868;DHT22;46702;48.370;10.794;2023-07-29T15:19:08;23.00;99.90
60868;DHT22;46702;48.370;10.794;2023-07-29T15:21:33;23.00;99.90
60868;DHT22;46702;48.370;10.794;2023-07-29T15:23:59;22.90;99.90
60868;DHT22;46702;48.370;10.794;2023-07-29T15:26:25;22.80;99.90
60868;DHT22;46702;48.370;10.794;2023-07-29T15:28:50;22.80;99.90
60868;DHT22;46702;48.370;10.794;2023-07-29T15:31:16;22.80;99.90